sensor_id;sensor_type;location;lat;lon;timestamp;P1;durP1;ratioP1;P2;durP2;ratioP2
56401;SDS011;42299;35.160;26.100;2023-07-16T00:00:51;15.63;;;8.98;;
56401;SDS011;42299;35.160;26.100;2023-07-16T00:11:13;16.38;;;8.80;;
56401;SDS011;42299;35.160;26.100;2023-07-16T00:21:38;14.63;;;9.25;;
56401;SDS011;42299;35.160;26.100;2023-07-16T00:32:00;15.63;;;9.18;;
56401;SDS011;42299;35.160;26.100;2023-07-16T00:42:24;15.82;;;9.10;;
56401;SDS011;42299;35.160;26.100;2023-07-16T00:52:47;19.88;;;9.50;;
56401;SDS011;42299;35.160;26.100;2023-07-16T01:03:12;24.75;;;10.75;;
56401;SDS011;42299;35.160;26.100;2023-07-16T01:13:36;15.65;;;9.45;;
56401;SDS011;42299;35.160;26.100;2023-07-16T01:35:02;21.45;;;10.07;;
56401;SDS011;42299;35.160;26.100;2023-07-16T01:45:06;22.48;;;9.73;;
56401;SDS011;42299;35.160;26.100;2023-07-16T01:55:30;17.73;;;9.57;;
56401;SDS011;42299;35.160;26.100;2023-07-16T02:05:53;19.75;;;8.90;;
56401;SDS011;42299;35.160;26.100;2023-07-16T02:16:17;18.80;;;8.65;;
56401;SDS011;42299;35.160;26.100;2023-07-16T02:26:39;19.30;;;8.27;;
56401;SDS011;42299;35.160;26.100;2023-07-16T02:37:07;17.17;;;8.98;;
56401;SDS011;42299;35.160;26.100;2023-07-16T02:47:24;21.17;;;9.13;;
56401;SDS011;42299;35.160;26.100;2023-07-16T02:57:48;16.95;;;8.25;;
56401;SDS011;42299;35.160;26.100;2023-07-16T03:08:11;18.05;;;9.88;;
56401;SDS011;42299;35.160;26.100;2023-07-16T03:18:35;19.00;;;9.07;;
56401;SDS011;42299;35.160;26.100;2023-07-16T03:28:58;15.30;;;9.13;;
56401;SDS011;42299;35.160;26.100;2023-07-16T03:39:13;27.75;;;9.60;;
56401;SDS011;42299;35.160;26.100;2023-07-16T03:49:36;15.57;;;9.02;;
56401;SDS011;42299;35.160;26.100;2023-07-16T04:00:00;15.15;;;7.95;;
56401;SDS011;42299;35.160;26.100;2023-07-16T04:10:35;15.07;;;7.60;;
56401;SDS011;42299;35.160;26.100;2023-07-16T04:20:59;17.23;;;7.38;;
56401;SDS011;42299;35.160;26.100;2023-07-16T04:31:22;17.25;;;7.20;;
56401;SDS011;42299;35.160;26.100;2023-07-16T04:41:46;18.50;;;7.30;;
56401;SDS011;42299;35.160;26.100;2023-07-16T04:52:09;15.98;;;7.00;;
56401;SDS011;42299;35.160;26.100;2023-07-16T05:02:34;14.82;;;7.20;;
56401;SDS011;42299;35.160;26.100;2023-07-16T05:12:56;14.05;;;6.70;;
56401;SDS011;42299;35.160;26.100;2023-07-16T05:23:20;13.30;;;6.22;;
56401;SDS011;42299;35.160;26.100;2023-07-16T05:33:43;13.50;;;6.90;;
56401;SDS011;42299;35.160;26.100;2023-07-16T05:44:07;15.07;;;6.45;;
56401;SDS011;42299;35.160;26.100;2023-07-16T05:54:10;15.68;;;6.60;;
56401;SDS011;42299;35.160;26.100;2023-07-16T06:04:35;14.30;;;5.95;;
56401;SDS011;42299;35.160;26.100;2023-07-16T06:14:57;14.30;;;6.53;;
56401;SDS011;42299;35.160;26.100;2023-07-16T06:25:22;17.35;;;5.90;;
56401;SDS011;42299;35.160;26.100;2023-07-16T06:46:09;10.68;;;5.35;;
56401;SDS011;42299;35.160;26.100;2023-07-16T06:56:32;13.55;;;5.38;;
56401;SDS011;42299;35.160;26.100;2023-07-16T07:06:56;11.52;;;4.75;;
56401;SDS011;42299;35.160;26.100;2023-07-16T07:17:18;8.18;;;4.55;;
56401;SDS011;42299;35.160;26.100;2023-07-16T07:27:42;10.88;;;4.80;;
56401;SDS011;42299;35.160;26.100;2023-07-16T07:38:05;10.38;;;4.38;;
56401;SDS011;42299;35.160;26.100;2023-07-16T07:48:30;13.27;;;5.07;;
56401;SDS011;42299;35.160;26.100;2023-07-16T07:58:39;11.80;;;4.35;;
56401;SDS011;42299;35.160;26.100;2023-07-16T08:09:03;7.47;;;4.38;;
56401;SDS011;42299;35.160;26.100;2023-07-16T08:19:26;11.27;;;4.05;;
56401;SDS011;42299;35.160;26.100;2023-07-16T08:29:51;8.40;;;3.95;;
56401;SDS011;42299;35.160;26.100;2023-07-16T08:40:14;6.65;;;3.40;;
56401;SDS011;42299;35.160;26.100;2023-07-16T08:50:38;7.80;;;3.42;;
56401;SDS011;42299;35.160;26.100;2023-07-16T09:01:03;7.43;;;3.03;;
56401;SDS011;42299;35.160;26.100;2023-07-16T09:21:51;7.68;;;2.83;;
56401;SDS011;42299;35.160;26.100;2023-07-16T09:32:16;5.70;;;2.38;;
56401;SDS011;42299;35.160;26.100;2023-07-16T09:42:42;7.47;;;3.05;;
56401;SDS011;42299;35.160;26.100;2023-07-16T09:53:06;7.32;;;2.95;;
56401;SDS011;42299;35.160;26.100;2023-07-16T10:03:30;9.05;;;3.10;;
56401;SDS011;42299;35.160;26.100;2023-07-16T10:13:54;6.10;;;2.80;;
56401;SDS011;42299;35.160;26.100;2023-07-16T10:24:17;6.85;;;2.83;;
56401;SDS011;42299;35.160;26.100;2023-07-16T10:34:42;9.13;;;2.80;;
56401;SDS011;42299;35.160;26.100;2023-07-16T10:45:05;5.25;;;2.60;;
56401;SDS011;42299;35.160;26.100;2023-07-16T10:55:31;5.83;;;2.70;;
56401;SDS011;42299;35.160;26.100;2023-07-16T11:05:58;5.32;;;2.90;;
56401;SDS011;42299;35.160;26.100;2023-07-16T11:16:29;8.88;;;2.38;;
56401;SDS011;42299;35.160;26.100;2023-07-16T11:26:55;8.30;;;2.45;;
56401;SDS011;42299;35.160;26.100;2023-07-16T11:37:20;7.22;;;2.67;;
56401;SDS011;42299;35.160;26.100;2023-07-16T11:47:43;5.28;;;2.60;;
56401;SDS011;42299;35.160;26.100;2023-07-16T11:58:07;7.30;;;2.47;;
56401;SDS011;42299;35.160;26.100;2023-07-16T12:08:10;9.32;;;2.70;;
56401;SDS011;42299;35.160;26.100;2023-07-16T12:18:36;6.23;;;2.90;;
56401;SDS011;42299;35.160;26.100;2023-07-16T12:28:59;11.63;;;3.20;;
56401;SDS011;42299;35.160;26.100;2023-07-16T12:39:26;7.07;;;2.95;;
56401;SDS011;42299;35.160;26.100;2023-07-16T13:00:12;6.93;;;2.28;;
56401;SDS011;42299;35.160;26.100;2023-07-16T13:10:35;7.82;;;2.45;;
56401;SDS011;42299;35.160;26.100;2023-07-16T13:20:59;8.73;;;2.47;;
56401;SDS011;42299;35.160;26.100;2023-07-16T13:41:46;12.50;;;4.95;;
56401;SDS011;42299;35.160;26.100;2023-07-16T13:52:08;10.95;;;2.67;;
56401;SDS011;42299;35.160;26.100;2023-07-16T14:02:32;12.10;;;3.22;;
56401;SDS011;42299;35.160;26.100;2023-07-16T14:12:55;7.72;;;2.28;;
56401;SDS011;42299;35.160;26.100;2023-07-16T14:23:19;5.53;;;2.38;;
56401;SDS011;42299;35.160;26.100;2023-07-16T14:33:42;10.10;;;2.77;;
56401;SDS011;42299;35.160;26.100;2023-07-16T14:44:06;10.55;;;2.80;;
56401;SDS011;42299;35.160;26.100;2023-07-16T14:54:29;7.65;;;2.22;;
56401;SDS011;42299;35.160;26.100;2023-07-16T15:04:53;8.55;;;2.58;;
56401;SDS011;42299;35.160;26.100;2023-07-16T15:15:15;8.57;;;2.40;;
56401;SDS011;42299;35.160;26.100;2023-07-16T15:25:41;7.97;;;2.50;;
56401;SDS011;42299;35.160;26.100;2023-07-16T15:36:04;8.90;;;2.70;;
56401;SDS011;42299;35.160;26.100;2023-07-16T15:46:29;8.90;;;2.47;;
56401;SDS011;42299;35.160;26.100;2023-07-16T15:56:51;11.55;;;2.70;;
56401;SDS011;42299;35.160;26.100;2023-07-16T16:07:15;9.15;;;2.75;;
56401;SDS011;42299;35.160;26.100;2023-07-16T16:17:39;8.40;;;2.65;;
56401;SDS011;42299;35.160;26.100;2023-07-16T16:28:05;9.25;;;3.90;;
56401;SDS011;42299;35.160;26.100;2023-07-16T16:38:29;9.82;;;3.30;;
56401;SDS011;42299;35.160;26.100;2023-07-16T16:48:53;9.32;;;2.90;;
56401;SDS011;42299;35.160;26.100;2023-07-16T16:59:15;9.35;;;3.33;;
56401;SDS011;42299;35.160;26.100;2023-07-16T17:09:39;13.50;;;3.63;;
56401;SDS011;42299;35.160;26.100;2023-07-16T17:20:04;8.52;;;3.67;;
56401;SDS011;42299;35.160;26.100;2023-07-16T17:30:32;12.83;;;4.07;;
56401;SDS011;42299;35.160;26.100;2023-07-16T17:40:54;13.82;;;3.90;;
56401;SDS011;42299;35.160;26.100;2023-07-16T17:51:20;12.98;;;3.95;;
56401;SDS011;42299;35.160;26.100;2023-07-16T18:01:42;13.43;;;4.18;;
56401;SDS011;42299;35.160;26.100;2023-07-16T18:12:07;8.38;;;3.72;;
56401;SDS011;42299;35.160;26.100;2023-07-16T18:22:30;12.80;;;4.78;;
56401;SDS011;42299;35.160;26.100;2023-07-16T18:32:55;11.30;;;4.72;;
56401;SDS011;42299;35.160;26.100;2023-07-16T18:43:17;24.40;;;13.05;;
56401;SDS011;42299;35.160;26.100;2023-07-16T18:53:41;19.70;;;6.28;;
56401;SDS011;42299;35.160;26.100;2023-07-16T19:04:04;13.60;;;4.53;;
56401;SDS011;42299;35.160;26.100;2023-07-16T19:14:28;10.80;;;3.70;;
56401;SDS011;42299;35.160;26.100;2023-07-16T19:24:50;16.20;;;5.80;;
56401;SDS011;42299;35.160;26.100;2023-07-16T19:35:14;11.20;;;4.18;;
56401;SDS011;42299;35.160;26.100;2023-07-16T19:45:37;18.45;;;8.18;;
56401;SDS011;42299;35.160;26.100;2023-07-16T19:56:01;9.55;;;3.92;;
56401;SDS011;42299;35.160;26.100;2023-07-16T20:06:05;8.23;;;3.80;;
56401;SDS011;42299;35.160;26.100;2023-07-16T20:16:29;11.38;;;3.97;;
56401;SDS011;42299;35.160;26.100;2023-07-16T20:26:52;14.65;;;4.30;;
56401;SDS011;42299;35.160;26.100;2023-07-16T20:37:16;9.27;;;3.83;;
56401;SDS011;42299;35.160;26.100;2023-07-16T20:47:40;11.30;;;4.15;;
56401;SDS011;42299;35.160;26.100;2023-07-16T20:58:05;11.10;;;3.72;;
56401;SDS011;42299;35.160;26.100;2023-07-16T21:08:28;10.18;;;3.65;;
56401;SDS011;42299;35.160;26.100;2023-07-16T21:18:52;10.63;;;4.05;;
56401;SDS011;42299;35.160;26.100;2023-07-16T21:29:15;12.15;;;4.47;;
56401;SDS011;42299;35.160;26.100;2023-07-16T21:39:39;13.43;;;4.00;;
56401;SDS011;42299;35.160;26.100;2023-07-16T21:50:02;11.20;;;4.22;;
56401;SDS011;42299;35.160;26.100;2023-07-16T22:00:26;9.57;;;4.18;;
56401;SDS011;42299;35.160;26.100;2023-07-16T22:10:48;9.45;;;4.00;;
56401;SDS011;42299;35.160;26.100;2023-07-16T22:21:13;11.27;;;4.10;;
56401;SDS011;42299;35.160;26.100;2023-07-16T22:31:54;11.57;;;4.25;;
56401;SDS011;42299;35.160;26.100;2023-07-16T22:41:59;9.95;;;4.32;;
56401;SDS011;42299;35.160;26.100;2023-07-16T22:52:01;13.77;;;4.45;;
56401;SDS011;42299;35.160;26.100;2023-07-16T23:02:16;10.10;;;3.58;;
56401;SDS011;42299;35.160;26.100;2023-07-16T23:12:38;10.15;;;3.38;;
56401;SDS011;42299;35.160;26.100;2023-07-16T23:23:02;9.95;;;3.90;;
56401;SDS011;42299;35.160;26.100;2023-07-16T23:33:25;9.68;;;3.85;;
56401;SDS011;42299;35.160;26.100;2023-07-16T23:43:49;11.43;;;4.00;;
56401;SDS011;42299;35.160;26.100;2023-07-16T23:53:53;11.18;;;4.10;;
